createdAt,value
2019-05-18T00:01:50.167Z,56.15
2019-05-18T00:04:18.209Z,56.06
2019-05-18T00:06:46.296Z,56.22
2019-05-18T00:09:14.301Z,56.24
2019-05-18T00:11:42.310Z,56.22
2019-05-18T00:14:10.435Z,56.31
2019-05-18T00:16:38.571Z,56.05
2019-05-18T00:19:06.597Z,56.08
2019-05-18T00:21:34.644Z,56.24
2019-05-18T00:24:21.364Z,56.37
2019-05-18T00:26:49.418Z,56.30
2019-05-18T00:29:17.454Z,56.46
2019-05-18T00:31:45.478Z,56.35
2019-05-18T00:34:13.496Z,56.36
2019-05-18T00:36:41.686Z,56.36
2019-05-18T00:39:09.687Z,56.37
2019-05-18T00:41:37.731Z,56.28
2019-05-18T00:44:05.763Z,56.39
2019-05-18T00:46:33.806Z,56.30
2019-05-18T00:49:01.855Z,56.26
2019-05-18T00:51:29.846Z,56.17
2019-05-18T00:53:57.876Z,56.22
2019-05-18T00:56:26.434Z,56.38
2019-05-18T00:58:54.447Z,56.31
2019-05-18T01:01:22.477Z,56.39
2019-05-18T01:03:50.528Z,56.46
2019-05-18T01:06:18.555Z,56.42
2019-05-18T01:08:46.575Z,56.34
2019-05-18T01:11:14.715Z,56.47
2019-05-18T01:13:42.736Z,56.40
2019-05-18T01:16:10.728Z,56.49
2019-05-18T01:18:38.846Z,56.47
2019-05-18T01:21:06.838Z,56.35
2019-05-18T01:23:34.868Z,56.35
2019-05-18T01:26:03.233Z,56.38
2019-05-18T01:28:31.247Z,56.53
2019-05-18T01:30:59.297Z,56.49
2019-05-18T01:33:27.322Z,56.40
2019-05-18T01:35:55.324Z,56.27
2019-05-18T01:38:23.334Z,56.24
2019-05-18T01:40:51.371Z,56.23
2019-05-18T01:43:19.781Z,56.21
2019-05-18T01:45:47.819Z,56.35
2019-05-18T01:48:15.863Z,56.14
2019-05-18T01:50:43.912Z,56.11
2019-05-18T01:53:11.950Z,56.21
2019-05-18T01:55:40.163Z,56.31
2019-05-18T01:58:08.233Z,56.40
2019-05-18T02:00:36.235Z,56.33
2019-05-18T02:03:04.251Z,56.19
2019-05-18T02:05:32.283Z,56.28
2019-05-18T02:08:00.278Z,56.34
2019-05-18T02:10:28.393Z,56.27
2019-05-18T02:12:56.470Z,56.21
2019-05-18T02:15:24.475Z,56.24
2019-05-18T02:17:52.522Z,56.18
2019-05-18T02:20:20.572Z,56.30
2019-05-18T02:22:48.584Z,56.26
2019-05-18T02:25:16.669Z,56.31
2019-05-18T02:27:44.680Z,56.25
2019-05-18T02:30:16.977Z,56.40
2019-05-18T02:32:42.443Z,56.31
2019-05-18T02:35:10.496Z,56.24
2019-05-18T02:37:38.597Z,56.31
2019-05-18T02:40:06.630Z,56.29
2019-05-18T02:42:34.620Z,56.37
2019-05-18T02:45:02.761Z,56.36
2019-05-18T02:47:30.880Z,56.50
2019-05-18T02:49:58.916Z,56.42
2019-05-18T02:52:27.071Z,56.36
2019-05-18T02:54:55.201Z,56.43
2019-05-18T02:57:23.233Z,56.39
2019-05-18T02:59:51.279Z,56.40
2019-05-18T03:02:19.539Z,56.31
2019-05-18T03:04:47.627Z,56.22
2019-05-18T03:07:15.727Z,56.24
2019-05-18T03:09:43.784Z,56.25
2019-05-18T03:12:12.091Z,56.27
2019-05-18T03:14:40.107Z,56.24
2019-05-18T03:17:08.097Z,56.27
2019-05-18T03:19:36.147Z,56.24
2019-05-18T03:22:04.172Z,56.30
2019-05-18T03:24:32.193Z,56.24
2019-05-18T03:27:00.393Z,56.13
2019-05-18T03:29:28.425Z,56.14
2019-05-18T03:31:56.462Z,56.28
2019-05-18T03:34:24.462Z,56.18
2019-05-18T03:36:53.163Z,56.17
2019-05-18T03:39:21.194Z,56.06
2019-05-18T03:41:49.209Z,56.21
2019-05-18T03:44:17.427Z,56.10
2019-05-18T03:46:45.466Z,56.05
2019-05-18T03:49:25.960Z,56.18
2019-05-18T03:51:43.244Z,56.10
2019-05-18T03:54:11.308Z,56.03
2019-05-18T03:56:39.330Z,56.09
2019-05-18T03:59:07.366Z,56.07
2019-05-18T04:01:35.357Z,56.11
2019-05-18T04:04:03.353Z,56.27
2019-05-18T04:06:31.394Z,56.18
2019-05-18T04:08:59.426Z,56.17
2019-05-18T04:11:27.477Z,56.18
2019-05-18T04:13:55.517Z,56.25
2019-05-18T04:16:23.515Z,56.17
2019-05-18T04:18:51.562Z,56.15
2019-05-18T04:21:19.946Z,56.02
2019-05-18T04:23:47.970Z,56.14
2019-05-18T04:26:16.041Z,56.05
2019-05-18T04:28:44.109Z,56.08
2019-05-18T04:31:12.146Z,56.09
2019-05-18T04:33:40.234Z,56.06
2019-05-18T04:36:08.214Z,56.08
2019-05-18T04:38:36.227Z,56.09
2019-05-18T04:41:04.385Z,56.18
2019-05-18T04:43:32.369Z,56.17
2019-05-18T04:46:19.123Z,56.21
2019-05-18T04:48:47.146Z,56.23
2019-05-18T04:51:15.265Z,56.16
2019-05-18T04:53:43.268Z,56.18
2019-05-18T04:56:11.301Z,56.22
2019-05-18T04:58:39.293Z,56.31
2019-05-18T05:01:07.310Z,56.28
2019-05-18T05:03:35.314Z,56.25
2019-05-18T05:06:03.366Z,56.24
2019-05-18T05:08:31.344Z,56.24
2019-05-18T05:10:59.352Z,56.20
2019-05-18T05:13:27.406Z,56.28
2019-05-18T05:15:55.408Z,56.34
2019-05-18T05:18:23.434Z,56.27
2019-05-18T05:20:51.506Z,56.37
2019-05-18T05:23:19.534Z,56.39
2019-05-18T05:25:47.556Z,56.41
2019-05-18T05:28:15.605Z,56.36
2019-05-18T05:30:43.590Z,56.46
2019-05-18T05:33:11.596Z,56.41
2019-05-18T05:35:39.697Z,56.56
2019-05-18T05:38:07.715Z,56.55
2019-05-18T05:40:35.711Z,56.47
2019-05-18T05:43:03.953Z,56.45
2019-05-18T05:45:31.957Z,56.66
2019-05-18T05:48:00.098Z,56.67
2019-05-18T05:50:36.224Z,56.58
2019-05-18T05:52:58.104Z,56.66
2019-05-18T05:55:26.138Z,56.67
2019-05-18T05:57:54.170Z,56.68
2019-05-18T06:00:22.227Z,56.73
2019-05-18T06:02:50.217Z,56.75
2019-05-18T06:05:18.248Z,56.63
2019-05-18T06:07:46.252Z,56.74
2019-05-18T06:10:14.286Z,56.81
2019-05-18T06:12:42.259Z,56.86
2019-05-18T06:15:10.312Z,56.73
2019-05-18T06:17:38.358Z,56.65
2019-05-18T06:20:06.353Z,56.73
2019-05-18T06:22:34.366Z,56.73
2019-05-18T06:25:03.024Z,56.70
2019-05-18T06:27:31.636Z,56.85
2019-05-18T06:29:59.619Z,56.81
2019-05-18T06:32:27.666Z,56.79
2019-05-18T06:34:55.662Z,56.81
2019-05-18T06:37:23.718Z,56.78
2019-05-18T06:39:51.765Z,56.89
2019-05-18T06:42:19.957Z,57.11
2019-05-18T06:44:47.937Z,57.01
2019-05-18T06:47:15.987Z,56.94
2019-05-18T06:49:44.004Z,56.78
2019-05-18T06:52:11.989Z,56.69
2019-05-18T06:54:40.139Z,56.72
2019-05-18T06:57:08.194Z,57.17
2019-05-18T06:59:36.186Z,57.98
2019-05-18T07:02:04.252Z,58.26
2019-05-18T07:04:32.264Z,58.23
2019-05-18T07:07:00.276Z,58.29
2019-05-18T07:09:28.332Z,58.21
2019-05-18T07:11:56.472Z,58.07
2019-05-18T07:14:26.004Z,58.06
2019-05-18T07:16:54.337Z,57.87
2019-05-18T07:19:22.386Z,57.79
2019-05-18T07:21:50.476Z,57.66
2019-05-18T07:24:18.631Z,57.52
2019-05-18T07:26:46.648Z,57.50
2019-05-18T07:29:14.700Z,57.38
2019-05-18T07:31:42.745Z,57.32
2019-05-18T07:34:10.797Z,57.24
2019-05-18T07:36:38.868Z,57.53
2019-05-18T07:39:06.951Z,57.52
2019-05-18T07:41:46.418Z,57.48
2019-05-18T07:44:04.809Z,57.40
2019-05-18T07:46:32.900Z,57.38
2019-05-18T07:49:01.117Z,57.35
2019-05-18T07:51:36.531Z,57.34
2019-05-18T07:53:58.899Z,58.07
2019-05-18T07:56:27.157Z,58.46
2019-05-18T07:59:13.920Z,57.99
2019-05-18T08:01:41.940Z,58.04
2019-05-18T08:04:09.996Z,58.07
2019-05-18T08:06:38.134Z,57.65
2019-05-18T08:09:06.281Z,57.77
2019-05-18T08:11:34.339Z,57.85
2019-05-18T08:14:02.429Z,57.37
2019-05-18T08:16:30.623Z,57.42
2019-05-18T08:18:58.690Z,57.28
2019-05-18T08:21:26.801Z,57.42
2019-05-18T08:23:54.890Z,57.43
2019-05-18T08:26:23.015Z,57.16
2019-05-18T08:28:51.098Z,57.76
2019-05-18T08:31:19.172Z,57.02
2019-05-18T08:33:48.266Z,56.94
2019-05-18T08:36:16.292Z,56.91
2019-05-18T08:38:44.339Z,56.82
2019-05-18T08:41:12.439Z,56.81
2019-05-18T08:43:40.517Z,56.69
2019-05-18T08:46:08.537Z,56.66
2019-05-18T08:48:36.676Z,56.66
2019-05-18T08:51:05.846Z,56.54
2019-05-18T08:53:34.351Z,56.66
2019-05-18T08:56:02.425Z,56.51
2019-05-18T08:58:30.481Z,56.49
2019-05-18T09:00:58.529Z,56.52
2019-05-18T09:03:26.618Z,56.50
2019-05-18T09:05:54.688Z,56.38
2019-05-18T09:08:22.697Z,56.40
2019-05-18T09:10:50.713Z,56.27
2019-05-18T09:13:18.856Z,56.31
2019-05-18T09:15:46.881Z,56.31
2019-05-18T09:18:14.892Z,56.31
2019-05-18T09:20:43.309Z,56.27
2019-05-18T09:23:11.400Z,56.26
2019-05-18T09:25:39.436Z,56.26
2019-05-18T09:28:07.517Z,56.29
2019-05-18T09:30:35.636Z,56.27
2019-05-18T09:33:03.772Z,56.24
2019-05-18T09:35:31.829Z,56.21
2019-05-18T09:38:00.178Z,56.18
2019-05-18T09:40:28.250Z,55.99
2019-05-18T09:42:56.265Z,56.13
2019-05-18T09:45:24.279Z,56.15
2019-05-18T09:47:52.353Z,56.13
2019-05-18T09:50:20.372Z,56.11
2019-05-18T09:52:48.390Z,56.00
2019-05-18T09:55:16.462Z,56.01
2019-05-18T09:57:44.511Z,55.85
2019-05-18T10:00:12.916Z,56.22
2019-05-18T10:02:41.007Z,56.19
2019-05-18T10:05:09.134Z,56.11
2019-05-18T10:07:37.249Z,56.23
2019-05-18T10:10:05.313Z,56.15
2019-05-18T10:12:33.400Z,56.22
2019-05-18T10:15:02.190Z,56.27
2019-05-18T10:17:31.358Z,56.18
2019-05-18T10:19:59.516Z,56.11
2019-05-18T10:22:27.563Z,55.80
2019-05-18T10:24:55.633Z,55.86
2019-05-18T10:27:23.891Z,55.82
2019-05-18T10:29:52.142Z,56.15
2019-05-18T10:32:23.040Z,56.24
2019-05-18T10:34:51.113Z,56.08
2019-05-18T10:37:19.126Z,56.41
2019-05-18T10:39:47.165Z,56.34
2019-05-18T10:42:15.483Z,55.80
2019-05-18T10:44:43.523Z,55.85
2019-05-18T10:47:11.631Z,55.86
2019-05-18T10:49:39.700Z,56.01
2019-05-18T10:52:07.949Z,56.04
2019-05-18T10:54:35.989Z,56.01
2019-05-18T10:57:04.007Z,55.96
2019-05-18T10:59:32.139Z,55.92
2019-05-18T11:02:01.097Z,55.99
2019-05-18T11:04:29.184Z,55.95
2019-05-18T11:06:57.176Z,55.91
2019-05-18T11:09:25.260Z,55.88
2019-05-18T11:11:53.322Z,55.83
2019-05-18T11:14:21.349Z,55.80
2019-05-18T11:16:49.445Z,55.80
2019-05-18T11:19:17.708Z,55.77
2019-05-18T11:21:45.744Z,55.74
2019-05-18T11:24:13.894Z,55.73
2019-05-18T11:26:41.988Z,55.73
2019-05-18T11:29:09.974Z,55.71
2019-05-18T11:31:38.145Z,55.74
2019-05-18T11:34:06.196Z,55.76
2019-05-18T11:36:34.818Z,55.74
2019-05-18T11:39:03.114Z,55.71
2019-05-18T11:41:31.342Z,55.67
2019-05-18T11:43:59.496Z,55.65
2019-05-18T11:46:27.513Z,55.65
2019-05-18T11:48:56.051Z,55.65
2019-05-18T11:51:24.115Z,55.66
2019-05-18T11:53:58.304Z,55.66
2019-05-18T11:56:22.027Z,55.65
2019-05-18T11:58:50.029Z,55.66
2019-05-18T12:01:18.207Z,55.62
2019-05-18T12:03:46.331Z,55.63
2019-05-18T12:06:14.700Z,55.60
2019-05-18T12:08:43.518Z,55.55
2019-05-18T12:11:11.625Z,55.47
2019-05-18T12:13:39.631Z,55.41
2019-05-18T12:16:07.660Z,55.31
2019-05-18T12:18:35.802Z,55.21
2019-05-18T12:21:03.905Z,55.18
2019-05-18T12:23:31.934Z,55.12
2019-05-18T12:25:59.992Z,55.13
2019-05-18T12:28:28.141Z,55.15
2019-05-18T12:30:56.177Z,55.17
2019-05-18T12:33:24.322Z,55.17
2019-05-18T12:35:52.328Z,55.18
2019-05-18T12:38:20.350Z,55.24
2019-05-18T12:40:48.503Z,55.22
2019-05-18T12:43:16.534Z,55.28
2019-05-18T12:45:44.591Z,55.31
2019-05-18T12:48:12.702Z,55.29
2019-05-18T12:50:40.704Z,55.28
2019-05-18T12:53:08.787Z,55.23
2019-05-18T12:55:36.855Z,55.22
2019-05-18T12:58:04.901Z,55.21
2019-05-18T13:00:32.926Z,55.18
2019-05-18T13:03:01.179Z,55.12
2019-05-18T13:05:29.277Z,55.42
2019-05-18T13:07:57.630Z,55.58
2019-05-18T13:10:25.667Z,55.68
2019-05-18T13:12:53.676Z,55.79
2019-05-18T13:15:21.715Z,55.85
2019-05-18T13:17:49.811Z,55.91
2019-05-18T13:20:17.840Z,55.95
2019-05-18T13:22:45.906Z,55.89
2019-05-18T13:25:13.995Z,55.92
2019-05-18T13:27:42.084Z,55.89
2019-05-18T13:30:10.151Z,55.86
2019-05-18T13:32:38.269Z,55.76
2019-05-18T13:35:06.337Z,55.70
2019-05-18T13:37:34.707Z,55.62
2019-05-18T13:40:02.897Z,55.51
2019-05-18T13:42:30.983Z,55.43
2019-05-18T13:44:58.996Z,55.34
2019-05-18T13:47:27.010Z,55.31
2019-05-18T13:49:55.084Z,55.21
2019-05-18T13:52:23.124Z,55.18
2019-05-18T13:55:03.089Z,55.13
2019-05-18T13:57:20.960Z,55.10
2019-05-18T13:59:49.077Z,55.06
2019-05-18T14:02:17.457Z,55.02
2019-05-18T14:04:45.508Z,54.96
2019-05-18T14:07:13.510Z,54.95
2019-05-18T14:09:41.533Z,54.86
2019-05-18T14:12:09.540Z,54.87
2019-05-18T14:14:37.686Z,54.80
2019-05-18T14:17:05.709Z,54.78
2019-05-18T14:19:33.932Z,54.76
2019-05-18T14:22:02.098Z,54.70
2019-05-18T14:24:30.128Z,54.66
2019-05-18T14:26:58.186Z,54.62
2019-05-18T14:29:26.199Z,54.60
2019-05-18T14:31:54.851Z,54.54
2019-05-18T14:34:23.246Z,54.50
2019-05-18T14:36:51.376Z,54.45
2019-05-18T14:39:19.483Z,54.48
2019-05-18T14:41:47.509Z,54.42
2019-05-18T14:44:15.579Z,54.40
2019-05-18T14:46:43.649Z,54.32
2019-05-18T14:49:11.704Z,54.32
2019-05-18T14:51:39.787Z,54.25
2019-05-18T14:54:07.878Z,54.28
2019-05-18T14:56:35.985Z,54.25
2019-05-18T14:59:04.014Z,54.22
2019-05-18T15:01:32.064Z,54.19
2019-05-18T15:04:00.161Z,54.21
2019-05-18T15:06:28.166Z,54.15
2019-05-18T15:08:56.144Z,54.15
2019-05-18T15:11:24.759Z,54.12
2019-05-18T15:13:52.834Z,54.09
2019-05-18T15:16:21.102Z,54.04
2019-05-18T15:18:50.974Z,54.05
2019-05-18T15:21:19.182Z,54.02
2019-05-18T15:23:47.256Z,54.02
2019-05-18T15:26:15.676Z,54.01
2019-05-18T15:28:43.721Z,53.96
2019-05-18T15:31:11.783Z,53.95
2019-05-18T15:33:39.804Z,53.94
2019-05-18T15:36:07.819Z,53.88
2019-05-18T15:38:35.841Z,53.89
2019-05-18T15:41:03.878Z,53.86
2019-05-18T15:43:31.938Z,53.86
2019-05-18T15:46:00.144Z,53.89
2019-05-18T15:48:28.269Z,53.88
2019-05-18T15:50:59.223Z,53.86
2019-05-18T15:53:26.225Z,53.84
2019-05-18T15:56:05.382Z,53.86
2019-05-18T15:58:23.965Z,53.83
2019-05-18T16:00:52.047Z,53.76
2019-05-18T16:03:20.042Z,53.73
2019-05-18T16:05:48.096Z,53.71
2019-05-18T16:08:16.155Z,53.67
2019-05-18T16:10:44.180Z,53.65
2019-05-18T16:13:12.236Z,53.64
2019-05-18T16:15:40.317Z,53.57
2019-05-18T16:18:08.334Z,53.58
2019-05-18T16:20:36.328Z,53.51
2019-05-18T16:23:04.727Z,53.45
2019-05-18T16:25:32.926Z,53.44
2019-05-18T16:28:00.986Z,53.39
2019-05-18T16:30:29.191Z,53.34
2019-05-18T16:32:57.185Z,53.29
2019-05-18T16:35:25.241Z,53.27
2019-05-18T16:37:53.372Z,53.25
2019-05-18T16:40:21.402Z,53.19
2019-05-18T16:42:49.459Z,53.29
2019-05-18T16:45:17.492Z,53.28
2019-05-18T16:47:45.528Z,53.28
2019-05-18T16:50:13.585Z,53.43
2019-05-18T16:52:41.827Z,54.76
2019-05-18T16:55:09.889Z,55.23
2019-05-18T16:57:38.114Z,55.55
2019-05-18T17:00:06.164Z,54.69
2019-05-18T17:02:34.205Z,54.90
2019-05-18T17:05:02.347Z,54.73
2019-05-18T17:07:30.490Z,54.59
2019-05-18T17:09:58.545Z,54.47
2019-05-18T17:12:26.572Z,54.33
2019-05-18T17:14:54.610Z,54.24
2019-05-18T17:17:22.894Z,54.17
2019-05-18T17:19:50.919Z,54.07
2019-05-18T17:22:19.259Z,54.05
2019-05-18T17:24:47.344Z,53.96
2019-05-18T17:27:15.407Z,53.92
2019-05-18T17:29:43.669Z,53.86
2019-05-18T17:32:11.791Z,53.74
2019-05-18T17:34:39.895Z,53.65
2019-05-18T17:37:07.966Z,53.59
2019-05-18T17:39:36.004Z,53.47
2019-05-18T17:42:05.179Z,53.41
2019-05-18T17:44:33.465Z,53.35
2019-05-18T17:47:01.515Z,53.27
2019-05-18T17:49:29.705Z,53.22
2019-05-18T17:51:57.859Z,53.13
2019-05-18T17:54:26.091Z,53.09
2019-05-18T17:57:07.460Z,53.06
2019-05-18T17:59:23.929Z,53.00
2019-05-18T18:01:51.975Z,52.94
2019-05-18T18:04:20.032Z,52.95
2019-05-18T18:06:48.133Z,52.96
2019-05-18T18:09:16.193Z,53.47
2019-05-18T18:11:44.543Z,54.30
2019-05-18T18:14:12.650Z,53.85
2019-05-18T18:16:40.703Z,53.68
2019-05-18T18:19:08.743Z,53.76
2019-05-18T18:21:36.783Z,53.92
2019-05-18T18:24:04.806Z,53.88
2019-05-18T18:26:32.860Z,54.09
2019-05-18T18:29:04.043Z,54.29
2019-05-18T18:31:30.625Z,54.30
2019-05-18T18:33:58.625Z,54.33
2019-05-18T18:36:26.673Z,54.47
2019-05-18T18:38:54.695Z,54.53
2019-05-18T18:41:22.776Z,54.52
2019-05-18T18:43:50.867Z,54.50
2019-05-18T18:46:18.871Z,54.57
2019-05-18T18:48:46.944Z,54.63
2019-05-18T18:51:15.018Z,54.62
2019-05-18T18:53:43.036Z,54.33
2019-05-18T18:56:11.091Z,54.01
2019-05-18T18:58:39.317Z,53.90
2019-05-18T19:01:07.351Z,53.88
2019-05-18T19:03:35.423Z,53.75
2019-05-18T19:06:03.510Z,53.67
2019-05-18T19:08:31.526Z,53.52
2019-05-18T19:10:59.535Z,53.55
2019-05-18T19:13:27.735Z,53.51
2019-05-18T19:15:55.846Z,53.68
2019-05-18T19:18:23.865Z,53.79
2019-05-18T19:20:51.929Z,53.80
2019-05-18T19:23:19.944Z,53.76
2019-05-18T19:25:48.031Z,53.68
2019-05-18T19:28:16.083Z,53.68
2019-05-18T19:30:44.122Z,53.70
2019-05-18T19:33:12.824Z,53.74
2019-05-18T19:35:40.884Z,53.83
2019-05-18T19:38:08.916Z,54.00
2019-05-18T19:40:37.017Z,54.09
2019-05-18T19:43:05.152Z,54.09
2019-05-18T19:45:33.190Z,54.15
2019-05-18T19:48:01.239Z,54.08
2019-05-18T19:50:29.286Z,54.02
2019-05-18T19:52:57.542Z,53.93
2019-05-18T19:55:25.564Z,53.96
2019-05-18T19:58:07.791Z,53.93
2019-05-18T20:00:23.972Z,53.89
2019-05-18T20:02:52.048Z,53.86
2019-05-18T20:05:20.125Z,53.86
2019-05-18T20:07:48.114Z,53.88
2019-05-18T20:10:16.182Z,53.86
2019-05-18T20:12:44.222Z,53.84
2019-05-18T20:15:12.371Z,53.85
2019-05-18T20:17:40.778Z,53.85
2019-05-18T20:20:09.671Z,53.86
2019-05-18T20:22:37.768Z,53.83
2019-05-18T20:25:05.848Z,53.82
2019-05-18T20:27:33.931Z,53.86
2019-05-18T20:30:01.994Z,53.85
2019-05-18T20:32:30.022Z,53.81
2019-05-18T20:34:58.055Z,53.83
2019-05-18T20:37:26.061Z,53.84
2019-05-18T20:39:54.087Z,53.86
2019-05-18T20:42:22.189Z,53.88
2019-05-18T20:44:50.625Z,53.90
2019-05-18T20:47:18.895Z,53.89
2019-05-18T20:49:46.925Z,53.98
2019-05-18T20:52:14.977Z,54.07
2019-05-18T20:54:43.048Z,54.08
2019-05-18T20:57:11.095Z,54.05
2019-05-18T20:59:39.166Z,54.07
2019-05-18T21:02:07.220Z,54.06
2019-05-18T21:04:35.268Z,54.07
2019-05-18T21:07:03.308Z,54.04
2019-05-18T21:09:31.345Z,54.11
2019-05-18T21:11:59.421Z,54.26
2019-05-18T21:14:27.502Z,54.22
2019-05-18T21:16:55.541Z,54.18
2019-05-18T21:19:23.587Z,54.19
2019-05-18T21:21:51.710Z,54.22
2019-05-18T21:24:19.786Z,54.25
2019-05-18T21:26:47.914Z,54.22
2019-05-18T21:29:15.952Z,54.24
2019-05-18T21:31:43.970Z,54.26
2019-05-18T21:34:12.004Z,54.24
2019-05-18T21:36:40.075Z,54.32
2019-05-18T21:39:08.890Z,54.48
2019-05-18T21:41:36.895Z,54.79
2019-05-18T21:44:04.943Z,54.78
2019-05-18T21:46:33.459Z,54.77
2019-05-18T21:49:01.738Z,54.72
2019-05-18T21:51:29.868Z,54.69
2019-05-18T21:53:57.917Z,54.73
2019-05-18T21:56:25.925Z,54.72
2019-05-18T21:58:54.053Z,54.76
2019-05-18T22:01:22.139Z,54.73
2019-05-18T22:03:50.158Z,54.79
2019-05-18T22:06:18.252Z,54.83
2019-05-18T22:08:46.284Z,54.79
2019-05-18T22:11:14.300Z,54.83
2019-05-18T22:13:42.375Z,54.87
2019-05-18T22:16:10.447Z,54.87
2019-05-18T22:18:38.497Z,54.90
2019-05-18T22:21:06.560Z,54.91
2019-05-18T22:23:34.577Z,54.91
2019-05-18T22:26:02.627Z,55.05
2019-05-18T22:28:30.716Z,55.19
2019-05-18T22:30:58.942Z,55.25
2019-05-18T22:33:26.992Z,55.29
2019-05-18T22:35:55.391Z,55.46
2019-05-18T22:38:23.507Z,55.45
2019-05-18T22:40:51.595Z,55.35
2019-05-18T22:43:19.746Z,55.07
2019-05-18T22:45:47.849Z,55.11
2019-05-18T22:48:15.905Z,55.31
2019-05-18T22:50:43.896Z,55.18
2019-05-18T22:53:11.999Z,55.20
2019-05-18T22:55:40.077Z,55.12
2019-05-18T22:58:08.097Z,55.11
2019-05-18T23:00:36.133Z,55.13
2019-05-18T23:03:04.219Z,55.44
2019-05-18T23:05:32.231Z,55.15
2019-05-18T23:08:00.364Z,55.14
2019-05-18T23:10:28.398Z,55.08
2019-05-18T23:12:56.542Z,55.09
2019-05-18T23:15:24.553Z,55.03
2019-05-18T23:17:52.627Z,55.08
2019-05-18T23:20:20.692Z,55.10
2019-05-18T23:23:07.485Z,55.12
2019-05-18T23:25:35.546Z,55.13
2019-05-18T23:28:03.886Z,55.14
2019-05-18T23:30:31.934Z,55.24
2019-05-18T23:32:59.934Z,55.16
2019-05-18T23:35:27.991Z,55.29
2019-05-18T23:37:56.166Z,55.44
2019-05-18T23:40:24.226Z,55.37
2019-05-18T23:42:52.795Z,55.31
2019-05-18T23:45:22.041Z,55.22
2019-05-18T23:47:50.210Z,55.21
2019-05-18T23:50:18.204Z,55.20
2019-05-18T23:52:46.270Z,55.29
2019-05-18T23:55:14.270Z,55.31
2019-05-18T23:57:42.345Z,55.50
